Terminal Aerodrome Forecast
Issued by NWS Charleston, WV

Current Version | Previous Version | Text Only | Print | Product List | Glossary Off
Versions: 1 2 3 4 5 6 7 8 9 10 11 12 13 14 15 16 17 18 19 20 21

519
FTUS41 KRLX 201145
TAFBKW
TAF
KBKW 201145Z 2012/2112 00000KT 4SM BR FEW005
     FM201300 36006KT P6SM SCT045
     FM202300 01003KT P6SM SCT250
     FM210500 VRB02KT P6SM SCT250
     FM211100 13002KT 6SM BR SCT250=

USA.gov is the U.S. government's official web portal to all federal, state and local government web resources and services.